Terminal Aerodrome Forecast
Issued by NWS Goodland, KS

Home | Current Version | Previous Version | Text Only | Print | Product List | Glossary On
Versions: 1 2 3 4 5 6 7 8 9 10 11 12 13 14 15 16 17 18 19 20
711
FTUS43 KGLD 142351
TAFGLD
TAF
KGLD 142351Z 1500/1524 13007KT P6SM SCT030 OVC080
     FM150700 17004KT P6SM VCSH SCT025 OVC035
     FM151100 VRB03KT 5SM -FZRA SCT015 OVC020
     FM151400 14005KT 4SM -FZRA OVC015
     FM151700 13006KT 2SM -PL SCT003 OVC008=

USA.gov is the U.S. government's official web portal to all federal, state and local government web resources and services.